sensor_id;sensor_type;location;lat;lon;timestamp;P1;durP1;ratioP1;P2;durP2;ratioP2
18931;SDS011;9598;50.954;3.112;2022-07-06T00:04:23;4.32;;;3.92;;
18931;SDS011;9598;50.954;3.112;2022-07-06T00:09:25;4.40;;;4.00;;
18931;SDS011;9598;50.954;3.112;2022-07-06T00:14:32;4.20;;;3.85;;
18931;SDS011;9598;50.954;3.112;2022-07-06T00:19:34;4.30;;;4.00;;
18931;SDS011;9598;50.954;3.112;2022-07-06T00:24:36;5.63;;;4.43;;
18931;SDS011;9598;50.954;3.112;2022-07-06T00:29:40;4.72;;;4.00;;
18931;SDS011;9598;50.954;3.112;2022-07-06T00:34:43;4.25;;;3.95;;
18931;SDS011;9598;50.954;3.112;2022-07-06T00:39:46;4.60;;;4.20;;
18931;SDS011;9598;50.954;3.112;2022-07-06T00:44:49;4.75;;;4.35;;
18931;SDS011;9598;50.954;3.112;2022-07-06T00:49:51;4.95;;;4.45;;
18931;SDS011;9598;50.954;3.112;2022-07-06T00:55:11;4.40;;;4.03;;
18931;SDS011;9598;50.954;3.112;2022-07-06T01:00:15;4.60;;;4.20;;
18931;SDS011;9598;50.954;3.112;2022-07-06T01:05:19;4.75;;;4.35;;
18931;SDS011;9598;50.954;3.112;2022-07-06T01:10:21;5.13;;;4.72;;
18931;SDS011;9598;50.954;3.112;2022-07-06T01:15:25;6.45;;;4.95;;
18931;SDS011;9598;50.954;3.112;2022-07-06T01:20:29;6.85;;;5.30;;
18931;SDS011;9598;50.954;3.112;2022-07-06T01:25:34;4.90;;;4.40;;
18931;SDS011;9598;50.954;3.112;2022-07-06T01:30:36;6.70;;;5.20;;
18931;SDS011;9598;50.954;3.112;2022-07-06T01:35:39;5.53;;;5.05;;
18931;SDS011;9598;50.954;3.112;2022-07-06T01:40:41;5.15;;;4.72;;
18931;SDS011;9598;50.954;3.112;2022-07-06T01:45:43;6.30;;;5.70;;
18931;SDS011;9598;50.954;3.112;2022-07-06T01:50:48;5.43;;;4.78;;
18931;SDS011;9598;50.954;3.112;2022-07-06T01:55:51;5.15;;;4.75;;
18931;SDS011;9598;50.954;3.112;2022-07-06T02:00:53;6.18;;;5.30;;
18931;SDS011;9598;50.954;3.112;2022-07-06T02:05:56;6.82;;;5.20;;
18931;SDS011;9598;50.954;3.112;2022-07-06T02:10:58;5.82;;;5.40;;
18931;SDS011;9598;50.954;3.112;2022-07-06T02:16:01;5.95;;;5.45;;
18931;SDS011;9598;50.954;3.112;2022-07-06T02:21:05;6.15;;;5.55;;
18931;SDS011;9598;50.954;3.112;2022-07-06T02:26:07;5.88;;;5.38;;
18931;SDS011;9598;50.954;3.112;2022-07-06T02:31:10;6.13;;;5.72;;
18931;SDS011;9598;50.954;3.112;2022-07-06T02:36:15;6.22;;;5.63;;
18931;SDS011;9598;50.954;3.112;2022-07-06T02:41:20;6.80;;;6.15;;
18931;SDS011;9598;50.954;3.112;2022-07-06T02:46:26;7.18;;;6.47;;
18931;SDS011;9598;50.954;3.112;2022-07-06T02:51:29;7.00;;;6.45;;
18931;SDS011;9598;50.954;3.112;2022-07-06T02:56:31;7.57;;;6.30;;
18931;SDS011;9598;50.954;3.112;2022-07-06T03:01:35;7.15;;;6.57;;
18931;SDS011;9598;50.954;3.112;2022-07-06T03:06:38;7.97;;;7.18;;
18931;SDS011;9598;50.954;3.112;2022-07-06T03:11:41;7.20;;;6.43;;
18931;SDS011;9598;50.954;3.112;2022-07-06T03:16:43;9.45;;;8.02;;
18931;SDS011;9598;50.954;3.112;2022-07-06T03:21:52;9.07;;;8.18;;
18931;SDS011;9598;50.954;3.112;2022-07-06T03:26:55;9.05;;;8.15;;
18931;SDS011;9598;50.954;3.112;2022-07-06T03:31:58;9.45;;;8.50;;
18931;SDS011;9598;50.954;3.112;2022-07-06T03:37:02;9.18;;;8.38;;
18931;SDS011;9598;50.954;3.112;2022-07-06T03:42:04;10.63;;;8.30;;
18931;SDS011;9598;50.954;3.112;2022-07-06T03:47:11;9.77;;;8.98;;
18931;SDS011;9598;50.954;3.112;2022-07-06T03:52:15;11.23;;;10.13;;
18931;SDS011;9598;50.954;3.112;2022-07-06T03:57:24;12.00;;;10.52;;
18931;SDS011;9598;50.954;3.112;2022-07-06T04:02:27;9.82;;;8.90;;
18931;SDS011;9598;50.954;3.112;2022-07-06T04:07:32;10.57;;;9.50;;
18931;SDS011;9598;50.954;3.112;2022-07-06T04:12:39;13.48;;;10.20;;
18931;SDS011;9598;50.954;3.112;2022-07-06T04:17:42;11.27;;;10.23;;
18931;SDS011;9598;50.954;3.112;2022-07-06T04:22:58;11.10;;;10.07;;
18931;SDS011;9598;50.954;3.112;2022-07-06T04:28:01;10.88;;;9.95;;
18931;SDS011;9598;50.954;3.112;2022-07-06T04:33:05;10.25;;;9.25;;
18931;SDS011;9598;50.954;3.112;2022-07-06T04:38:10;10.75;;;9.43;;
18931;SDS011;9598;50.954;3.112;2022-07-06T04:43:13;11.13;;;9.95;;
18931;SDS011;9598;50.954;3.112;2022-07-06T04:48:16;11.55;;;10.35;;
18931;SDS011;9598;50.954;3.112;2022-07-06T04:53:20;12.55;;;10.50;;
18931;SDS011;9598;50.954;3.112;2022-07-06T04:58:22;11.00;;;9.93;;
18931;SDS011;9598;50.954;3.112;2022-07-06T05:03:24;11.52;;;10.10;;
18931;SDS011;9598;50.954;3.112;2022-07-06T05:08:35;10.73;;;8.82;;
18931;SDS011;9598;50.954;3.112;2022-07-06T05:13:37;10.27;;;8.82;;
18931;SDS011;9598;50.954;3.112;2022-07-06T05:18:40;10.98;;;8.90;;
18931;SDS011;9598;50.954;3.112;2022-07-06T05:23:44;10.05;;;8.82;;
18931;SDS011;9598;50.954;3.112;2022-07-06T05:28:46;10.40;;;7.97;;
18931;SDS011;9598;50.954;3.112;2022-07-06T05:33:52;11.35;;;8.90;;
18931;SDS011;9598;50.954;3.112;2022-07-06T05:38:56;8.77;;;7.57;;
18931;SDS011;9598;50.954;3.112;2022-07-06T05:43:58;8.95;;;8.05;;
18931;SDS011;9598;50.954;3.112;2022-07-06T05:49:01;9.32;;;7.47;;
18931;SDS011;9598;50.954;3.112;2022-07-06T05:54:21;8.68;;;7.50;;
18931;SDS011;9598;50.954;3.112;2022-07-06T05:59:32;8.35;;;6.70;;
18931;SDS011;9598;50.954;3.112;2022-07-06T06:04:35;7.65;;;6.85;;
18931;SDS011;9598;50.954;3.112;2022-07-06T06:09:39;9.38;;;7.25;;
18931;SDS011;9598;50.954;3.112;2022-07-06T06:14:41;9.32;;;7.22;;
18931;SDS011;9598;50.954;3.112;2022-07-06T06:19:43;11.35;;;7.40;;
18931;SDS011;9598;50.954;3.112;2022-07-06T06:24:47;10.07;;;6.95;;
18931;SDS011;9598;50.954;3.112;2022-07-06T06:29:49;8.13;;;7.32;;
18931;SDS011;9598;50.954;3.112;2022-07-06T06:34:51;9.00;;;8.13;;
18931;SDS011;9598;50.954;3.112;2022-07-06T06:39:54;10.10;;;8.65;;
18931;SDS011;9598;50.954;3.112;2022-07-06T06:44:56;9.63;;;8.35;;
18931;SDS011;9598;50.954;3.112;2022-07-06T06:50:02;9.80;;;8.30;;
18931;SDS011;9598;50.954;3.112;2022-07-06T06:55:06;9.77;;;8.40;;
18931;SDS011;9598;50.954;3.112;2022-07-06T07:00:10;8.70;;;7.88;;
18931;SDS011;9598;50.954;3.112;2022-07-06T07:05:13;8.60;;;7.72;;
18931;SDS011;9598;50.954;3.112;2022-07-06T07:10:16;9.60;;;7.82;;
18931;SDS011;9598;50.954;3.112;2022-07-06T07:15:22;8.82;;;7.65;;
18931;SDS011;9598;50.954;3.112;2022-07-06T07:20:25;8.85;;;7.90;;
18931;SDS011;9598;50.954;3.112;2022-07-06T07:25:33;8.85;;;7.40;;
18931;SDS011;9598;50.954;3.112;2022-07-06T07:30:35;11.00;;;8.23;;
18931;SDS011;9598;50.954;3.112;2022-07-06T07:35:38;9.40;;;7.93;;
18931;SDS011;9598;50.954;3.112;2022-07-06T07:40:45;9.77;;;8.05;;
18931;SDS011;9598;50.954;3.112;2022-07-06T07:45:48;9.75;;;8.70;;
18931;SDS011;9598;50.954;3.112;2022-07-06T07:50:51;10.50;;;8.88;;
18931;SDS011;9598;50.954;3.112;2022-07-06T07:55:56;10.05;;;8.70;;
18931;SDS011;9598;50.954;3.112;2022-07-06T08:00:59;10.82;;;7.97;;
18931;SDS011;9598;50.954;3.112;2022-07-06T08:06:01;8.80;;;7.60;;
18931;SDS011;9598;50.954;3.112;2022-07-06T08:11:08;9.88;;;8.25;;
18931;SDS011;9598;50.954;3.112;2022-07-06T08:16:11;12.05;;;9.18;;
18931;SDS011;9598;50.954;3.112;2022-07-06T08:21:14;11.70;;;9.20;;
18931;SDS011;9598;50.954;3.112;2022-07-06T08:26:19;11.40;;;7.68;;
18931;SDS011;9598;50.954;3.112;2022-07-06T08:31:21;12.98;;;8.93;;
18931;SDS011;9598;50.954;3.112;2022-07-06T08:36:24;11.00;;;9.57;;
18931;SDS011;9598;50.954;3.112;2022-07-06T08:41:28;9.63;;;8.73;;
18931;SDS011;9598;50.954;3.112;2022-07-06T08:46:32;12.43;;;9.00;;
18931;SDS011;9598;50.954;3.112;2022-07-06T08:51:34;10.80;;;7.72;;
18931;SDS011;9598;50.954;3.112;2022-07-06T08:56:40;10.35;;;8.93;;
18931;SDS011;9598;50.954;3.112;2022-07-06T09:01:44;9.07;;;6.93;;
18931;SDS011;9598;50.954;3.112;2022-07-06T09:06:47;8.52;;;7.10;;
18931;SDS011;9598;50.954;3.112;2022-07-06T09:11:52;8.25;;;5.60;;
18931;SDS011;9598;50.954;3.112;2022-07-06T09:17:01;8.57;;;7.75;;
18931;SDS011;9598;50.954;3.112;2022-07-06T09:22:04;8.27;;;7.15;;
18931;SDS011;9598;50.954;3.112;2022-07-06T09:27:15;7.90;;;7.10;;
18931;SDS011;9598;50.954;3.112;2022-07-06T09:32:20;7.65;;;6.82;;
18931;SDS011;9598;50.954;3.112;2022-07-06T09:37:22;8.18;;;7.38;;
18931;SDS011;9598;50.954;3.112;2022-07-06T09:42:26;7.88;;;7.18;;
18931;SDS011;9598;50.954;3.112;2022-07-06T09:47:32;14.70;;;7.90;;
18931;SDS011;9598;50.954;3.112;2022-07-06T09:52:34;9.07;;;7.50;;
18931;SDS011;9598;50.954;3.112;2022-07-06T09:57:38;9.25;;;7.47;;
18931;SDS011;9598;50.954;3.112;2022-07-06T10:02:40;8.88;;;8.05;;
18931;SDS011;9598;50.954;3.112;2022-07-06T10:07:42;8.52;;;6.60;;
18931;SDS011;9598;50.954;3.112;2022-07-06T10:12:50;7.13;;;6.18;;
18931;SDS011;9598;50.954;3.112;2022-07-06T10:17:53;9.43;;;7.95;;
18931;SDS011;9598;50.954;3.112;2022-07-06T10:22:57;8.38;;;6.60;;
18931;SDS011;9598;50.954;3.112;2022-07-06T10:28:02;6.45;;;5.85;;
18931;SDS011;9598;50.954;3.112;2022-07-06T10:33:13;10.95;;;7.82;;
18931;SDS011;9598;50.954;3.112;2022-07-06T10:38:17;6.85;;;5.60;;
18931;SDS011;9598;50.954;3.112;2022-07-06T10:43:20;6.55;;;5.32;;
18931;SDS011;9598;50.954;3.112;2022-07-06T10:48:23;6.20;;;5.60;;
18931;SDS011;9598;50.954;3.112;2022-07-06T10:53:25;6.20;;;5.60;;
18931;SDS011;9598;50.954;3.112;2022-07-06T10:58:41;5.18;;;3.97;;
18931;SDS011;9598;50.954;3.112;2022-07-06T11:03:48;5.78;;;4.50;;
18931;SDS011;9598;50.954;3.112;2022-07-06T11:08:52;5.25;;;4.75;;
18931;SDS011;9598;50.954;3.112;2022-07-06T11:13:58;4.75;;;4.25;;
18931;SDS011;9598;50.954;3.112;2022-07-06T11:19:07;5.25;;;4.55;;
18931;SDS011;9598;50.954;3.112;2022-07-06T11:24:12;6.78;;;4.80;;
18931;SDS011;9598;50.954;3.112;2022-07-06T11:29:17;7.03;;;5.32;;
18931;SDS011;9598;50.954;3.112;2022-07-06T11:34:22;5.45;;;4.82;;
18931;SDS011;9598;50.954;3.112;2022-07-06T11:39:26;5.38;;;4.25;;
18931;SDS011;9598;50.954;3.112;2022-07-06T11:44:29;5.28;;;4.75;;
18931;SDS011;9598;50.954;3.112;2022-07-06T11:49:34;6.13;;;5.35;;
18931;SDS011;9598;50.954;3.112;2022-07-06T11:54:38;5.20;;;4.43;;
18931;SDS011;9598;50.954;3.112;2022-07-06T11:59:42;4.72;;;4.22;;
18931;SDS011;9598;50.954;3.112;2022-07-06T12:04:49;4.30;;;3.90;;
18931;SDS011;9598;50.954;3.112;2022-07-06T12:09:51;5.03;;;4.63;;
18931;SDS011;9598;50.954;3.112;2022-07-06T12:14:55;6.28;;;5.30;;
18931;SDS011;9598;50.954;3.112;2022-07-06T12:19:57;8.30;;;5.32;;
18931;SDS011;9598;50.954;3.112;2022-07-06T12:24:59;6.38;;;5.18;;
18931;SDS011;9598;50.954;3.112;2022-07-06T12:30:09;5.82;;;5.15;;
18931;SDS011;9598;50.954;3.112;2022-07-06T12:35:12;6.32;;;5.10;;
18931;SDS011;9598;50.954;3.112;2022-07-06T12:40:16;7.22;;;4.68;;
18931;SDS011;9598;50.954;3.112;2022-07-06T12:45:25;6.25;;;4.15;;
18931;SDS011;9598;50.954;3.112;2022-07-06T12:50:31;5.18;;;4.32;;
18931;SDS011;9598;50.954;3.112;2022-07-06T12:55:35;4.88;;;4.30;;
18931;SDS011;9598;50.954;3.112;2022-07-06T13:00:44;5.60;;;4.68;;
18931;SDS011;9598;50.954;3.112;2022-07-06T13:05:49;6.40;;;5.63;;
18931;SDS011;9598;50.954;3.112;2022-07-06T13:10:53;6.10;;;4.40;;
18931;SDS011;9598;50.954;3.112;2022-07-06T13:15:59;5.97;;;4.68;;
18931;SDS011;9598;50.954;3.112;2022-07-06T13:21:04;7.32;;;5.20;;
18931;SDS011;9598;50.954;3.112;2022-07-06T13:26:13;6.57;;;4.80;;
18931;SDS011;9598;50.954;3.112;2022-07-06T13:31:16;5.18;;;3.53;;
18931;SDS011;9598;50.954;3.112;2022-07-06T13:36:18;4.43;;;3.25;;
18931;SDS011;9598;50.954;3.112;2022-07-06T13:41:22;4.90;;;2.83;;
18931;SDS011;9598;50.954;3.112;2022-07-06T13:46:26;3.40;;;2.28;;
18931;SDS011;9598;50.954;3.112;2022-07-06T13:51:29;4.13;;;2.00;;
18931;SDS011;9598;50.954;3.112;2022-07-06T13:56:32;4.10;;;1.70;;
18931;SDS011;9598;50.954;3.112;2022-07-06T14:01:39;2.40;;;1.30;;
18931;SDS011;9598;50.954;3.112;2022-07-06T14:06:42;2.88;;;1.40;;
18931;SDS011;9598;50.954;3.112;2022-07-06T14:11:44;3.63;;;1.77;;
18931;SDS011;9598;50.954;3.112;2022-07-06T14:16:47;2.55;;;1.35;;
18931;SDS011;9598;50.954;3.112;2022-07-06T14:21:51;2.50;;;1.33;;
18931;SDS011;9598;50.954;3.112;2022-07-06T14:26:53;2.95;;;1.15;;
18931;SDS011;9598;50.954;3.112;2022-07-06T14:31:56;3.40;;;1.40;;
18931;SDS011;9598;50.954;3.112;2022-07-06T14:36:58;3.63;;;1.73;;
18931;SDS011;9598;50.954;3.112;2022-07-06T14:42:00;1.50;;;0.70;;
18931;SDS011;9598;50.954;3.112;2022-07-06T14:47:04;0.85;;;0.50;;
18931;SDS011;9598;50.954;3.112;2022-07-06T14:52:06;0.88;;;0.43;;
18931;SDS011;9598;50.954;3.112;2022-07-06T14:57:10;0.30;;;0.30;;
18931;SDS011;9598;50.954;3.112;2022-07-06T15:02:13;0.73;;;0.50;;
18931;SDS011;9598;50.954;3.112;2022-07-06T15:07:15;0.73;;;0.70;;
18931;SDS011;9598;50.954;3.112;2022-07-06T15:12:17;0.52;;;0.52;;
18931;SDS011;9598;50.954;3.112;2022-07-06T15:17:21;0.85;;;0.68;;
18931;SDS011;9598;50.954;3.112;2022-07-06T15:22:23;2.15;;;0.70;;
18931;SDS011;9598;50.954;3.112;2022-07-06T15:27:25;1.38;;;0.63;;
18931;SDS011;9598;50.954;3.112;2022-07-06T15:32:29;1.27;;;0.50;;
18931;SDS011;9598;50.954;3.112;2022-07-06T15:37:31;0.50;;;0.50;;
18931;SDS011;9598;50.954;3.112;2022-07-06T15:42:34;2.22;;;0.70;;
18931;SDS011;9598;50.954;3.112;2022-07-06T15:47:37;0.50;;;0.50;;
18931;SDS011;9598;50.954;3.112;2022-07-06T15:52:40;1.33;;;0.57;;
18931;SDS011;9598;50.954;3.112;2022-07-06T15:57:42;0.80;;;0.60;;
18931;SDS011;9598;50.954;3.112;2022-07-06T16:02:46;0.98;;;0.88;;
18931;SDS011;9598;50.954;3.112;2022-07-06T16:07:48;0.77;;;0.77;;
18931;SDS011;9598;50.954;3.112;2022-07-06T16:12:50;0.90;;;0.70;;
18931;SDS011;9598;50.954;3.112;2022-07-06T16:17:54;0.95;;;0.80;;
18931;SDS011;9598;50.954;3.112;2022-07-06T16:22:56;1.65;;;1.02;;
18931;SDS011;9598;50.954;3.112;2022-07-06T16:27:58;1.30;;;0.98;;
18931;SDS011;9598;50.954;3.112;2022-07-06T16:33:01;1.42;;;1.13;;
18931;SDS011;9598;50.954;3.112;2022-07-06T16:38:03;2.25;;;2.05;;
18931;SDS011;9598;50.954;3.112;2022-07-06T16:43:06;1.90;;;1.70;;
18931;SDS011;9598;50.954;3.112;2022-07-06T16:48:09;1.60;;;1.50;;
18931;SDS011;9598;50.954;3.112;2022-07-06T16:53:11;1.83;;;1.50;;
18931;SDS011;9598;50.954;3.112;2022-07-06T16:58:13;1.70;;;1.60;;
18931;SDS011;9598;50.954;3.112;2022-07-06T17:03:21;2.85;;;1.98;;
18931;SDS011;9598;50.954;3.112;2022-07-06T17:08:23;2.15;;;1.70;;
18931;SDS011;9598;50.954;3.112;2022-07-06T17:13:27;1.60;;;1.50;;
18931;SDS011;9598;50.954;3.112;2022-07-06T17:18:31;2.25;;;1.70;;
18931;SDS011;9598;50.954;3.112;2022-07-06T17:23:33;1.55;;;1.45;;
18931;SDS011;9598;50.954;3.112;2022-07-06T17:28:35;2.35;;;1.60;;
18931;SDS011;9598;50.954;3.112;2022-07-06T17:33:39;1.42;;;1.23;;
18931;SDS011;9598;50.954;3.112;2022-07-06T17:38:41;1.98;;;1.33;;
18931;SDS011;9598;50.954;3.112;2022-07-06T17:43:43;2.60;;;1.73;;
18931;SDS011;9598;50.954;3.112;2022-07-06T17:48:46;2.25;;;1.80;;
18931;SDS011;9598;50.954;3.112;2022-07-06T17:53:48;2.15;;;1.60;;
18931;SDS011;9598;50.954;3.112;2022-07-06T17:58:51;2.88;;;2.03;;
18931;SDS011;9598;50.954;3.112;2022-07-06T18:03:54;2.13;;;2.00;;
18931;SDS011;9598;50.954;3.112;2022-07-06T18:08:56;4.47;;;2.55;;
18931;SDS011;9598;50.954;3.112;2022-07-06T18:14:01;3.20;;;2.35;;
18931;SDS011;9598;50.954;3.112;2022-07-06T18:19:05;3.15;;;2.53;;
18931;SDS011;9598;50.954;3.112;2022-07-06T18:24:07;3.10;;;2.45;;
18931;SDS011;9598;50.954;3.112;2022-07-06T18:29:09;3.15;;;2.60;;
18931;SDS011;9598;50.954;3.112;2022-07-06T18:34:13;3.60;;;2.25;;
18931;SDS011;9598;50.954;3.112;2022-07-06T18:39:20;3.60;;;2.90;;
18931;SDS011;9598;50.954;3.112;2022-07-06T18:44:22;4.10;;;3.38;;
18931;SDS011;9598;50.954;3.112;2022-07-06T18:49:28;4.20;;;3.58;;
18931;SDS011;9598;50.954;3.112;2022-07-06T18:54:30;5.35;;;3.35;;
18931;SDS011;9598;50.954;3.112;2022-07-06T18:59:32;5.07;;;3.50;;
18931;SDS011;9598;50.954;3.112;2022-07-06T19:04:36;3.08;;;2.28;;
18931;SDS011;9598;50.954;3.112;2022-07-06T19:09:38;3.67;;;2.42;;
18931;SDS011;9598;50.954;3.112;2022-07-06T19:14:40;3.55;;;2.55;;
18931;SDS011;9598;50.954;3.112;2022-07-06T19:19:43;3.08;;;2.75;;
18931;SDS011;9598;50.954;3.112;2022-07-06T19:24:45;3.25;;;3.00;;
18931;SDS011;9598;50.954;3.112;2022-07-06T19:29:47;3.75;;;3.08;;
18931;SDS011;9598;50.954;3.112;2022-07-06T19:34:50;4.63;;;3.28;;
18931;SDS011;9598;50.954;3.112;2022-07-06T19:39:52;4.20;;;3.55;;
18931;SDS011;9598;50.954;3.112;2022-07-06T19:44:55;3.95;;;3.17;;
18931;SDS011;9598;50.954;3.112;2022-07-06T19:49:58;4.60;;;3.45;;
18931;SDS011;9598;50.954;3.112;2022-07-06T19:55:00;3.67;;;3.38;;
18931;SDS011;9598;50.954;3.112;2022-07-06T20:00:03;3.22;;;2.92;;
18931;SDS011;9598;50.954;3.112;2022-07-06T20:05:10;3.20;;;2.92;;
18931;SDS011;9598;50.954;3.112;2022-07-06T20:10:12;3.10;;;2.35;;
18931;SDS011;9598;50.954;3.112;2022-07-06T20:15:14;2.53;;;2.13;;
18931;SDS011;9598;50.954;3.112;2022-07-06T20:20:18;2.83;;;2.13;;
18931;SDS011;9598;50.954;3.112;2022-07-06T20:25:20;1.92;;;1.83;;
18931;SDS011;9598;50.954;3.112;2022-07-06T20:30:22;2.40;;;1.70;;
18931;SDS011;9598;50.954;3.112;2022-07-06T20:35:26;2.95;;;2.22;;
18931;SDS011;9598;50.954;3.112;2022-07-06T20:40:28;2.38;;;2.00;;
18931;SDS011;9598;50.954;3.112;2022-07-06T20:45:30;1.88;;;1.77;;
18931;SDS011;9598;50.954;3.112;2022-07-06T20:50:34;2.90;;;1.90;;
18931;SDS011;9598;50.954;3.112;2022-07-06T20:55:36;2.53;;;1.80;;
18931;SDS011;9598;50.954;3.112;2022-07-06T21:00:39;2.50;;;2.15;;
18931;SDS011;9598;50.954;3.112;2022-07-06T21:05:42;2.70;;;2.25;;
18931;SDS011;9598;50.954;3.112;2022-07-06T21:10:44;2.30;;;2.10;;
18931;SDS011;9598;50.954;3.112;2022-07-06T21:15:46;2.42;;;2.20;;
18931;SDS011;9598;50.954;3.112;2022-07-06T21:20:50;2.90;;;2.40;;
18931;SDS011;9598;50.954;3.112;2022-07-06T21:25:52;3.65;;;2.33;;
18931;SDS011;9598;50.954;3.112;2022-07-06T21:30:54;2.00;;;1.80;;
18931;SDS011;9598;50.954;3.112;2022-07-06T21:35:57;4.50;;;2.30;;
18931;SDS011;9598;50.954;3.112;2022-07-06T21:40:59;2.47;;;2.28;;
18931;SDS011;9598;50.954;3.112;2022-07-06T21:46:01;3.30;;;2.25;;
18931;SDS011;9598;50.954;3.112;2022-07-06T21:51:05;2.88;;;2.35;;
18931;SDS011;9598;50.954;3.112;2022-07-06T21:56:07;2.25;;;2.05;;
18931;SDS011;9598;50.954;3.112;2022-07-06T22:01:10;4.35;;;2.60;;
18931;SDS011;9598;50.954;3.112;2022-07-06T22:06:14;3.42;;;3.13;;
18931;SDS011;9598;50.954;3.112;2022-07-06T22:11:17;3.50;;;3.20;;
18931;SDS011;9598;50.954;3.112;2022-07-06T22:16:19;4.07;;;3.40;;
18931;SDS011;9598;50.954;3.112;2022-07-06T22:21:25;3.95;;;2.90;;
18931;SDS011;9598;50.954;3.112;2022-07-06T22:26:27;4.22;;;3.25;;
18931;SDS011;9598;50.954;3.112;2022-07-06T22:31:30;4.55;;;3.33;;
18931;SDS011;9598;50.954;3.112;2022-07-06T22:36:34;4.10;;;3.63;;
18931;SDS011;9598;50.954;3.112;2022-07-06T22:41:37;4.70;;;4.05;;
18931;SDS011;9598;50.954;3.112;2022-07-06T22:46:39;4.15;;;3.75;;
18931;SDS011;9598;50.954;3.112;2022-07-06T22:51:43;6.00;;;4.13;;
18931;SDS011;9598;50.954;3.112;2022-07-06T22:56:46;4.63;;;4.22;;
18931;SDS011;9598;50.954;3.112;2022-07-06T23:01:48;4.85;;;4.32;;
18931;SDS011;9598;50.954;3.112;2022-07-06T23:06:52;5.82;;;4.18;;
18931;SDS011;9598;50.954;3.112;2022-07-06T23:11:54;7.10;;;4.72;;
18931;SDS011;9598;50.954;3.112;2022-07-06T23:16:59;4.60;;;4.18;;
18931;SDS011;9598;50.954;3.112;2022-07-06T23:22:04;5.05;;;4.55;;
18931;SDS011;9598;50.954;3.112;2022-07-06T23:27:06;4.95;;;4.43;;
18931;SDS011;9598;50.954;3.112;2022-07-06T23:32:09;4.97;;;4.47;;
18931;SDS011;9598;50.954;3.112;2022-07-06T23:37:13;5.32;;;4.50;;
18931;SDS011;9598;50.954;3.112;2022-07-06T23:42:15;5.20;;;4.63;;
18931;SDS011;9598;50.954;3.112;2022-07-06T23:47:18;5.00;;;4.50;;
18931;SDS011;9598;50.954;3.112;2022-07-06T23:52:22;5.15;;;4.68;;
18931;SDS011;9598;50.954;3.112;2022-07-06T23:57:24;5.18;;;4.60;;
